ěÝzenÝ letovÚho provozu ╚eskÚ republiky
Letiste: LKPR Aktualizace: 07.07.2020 16:30:25  UTC
 METAR LKPR 07.07. 16:30 ...
METAR LKPR 071630Z 27007KT CAVOK 19/04 Q1018 NOSIG RMK REG QNH 1017=
 TAF LKPR 07.07. 11:00 ...
TAF LKPR 071100Z 0712/0818 25008KT CAVOK      TEMPO 0715/0809 VRB02KT      BECMG 0809/0811 BKN036      TEMPO 0811/0818 -RA=